Hauptseite
METAR-TAF:

METAR-TAF

Flughäfen :

Flugplatz St. Gallen-Altenrhein

St. Gallen, Schweiz

Breite: 47-29-06N, Länge: 009-33-43E, Höhe: 398 m

Beobachtung

Neuester Wetterbericht von vor 26 Minuten, um 05:50 UTC
Wind 4 kt aus West/Nordwest
Temperatur 13°C
Luftfeuchtigkeit 94%
Luftdruck 1027 hPa
Sichtweite: 6000 m
Geschlossene Wolkendecke in der Höhe von 700 ft

METAR: LSZR 070550Z 30004KT 6000 OVC007 13/12 Q1027 RMK B

Zeit: 08:16 (06:16 UTC)

Prognose

Neuester Wetterbericht von vor 51 Minuten, um 05:25 UTC
Gültige Prognose vom 07 um 06 UTC bis 07 um 15 UTC
Wind 2 kt aus unterschiedlichen Richtungen
Sichtweite 10 km oder mehr
Geschlossene Wolkendecke in der Höhe von 600 ft
Übergehend zu
vom 07 um 08 UTC bis 07 um 11 UTC
Aufgelockert bewölkt in der Höhe von 1200 ft

TAF: LSZR 070525Z 0706/0715 VRB02KT 9999 OVC006 BECMG 0708/0711 SCT012

Wetterbeobachtungen und Prognosen von mehr als 4000 Flughäfen (METAR und TAF Bericht).

Die verfügbaren Stationen werden durch gelbe und rote Markierungen auf der Karte dargestellt.

Führen Sie die Maus auf sie, um den Namen der Station zu sehen.

Darauf klicken, um die Beobachtung von Wetterbeobachtungen und Prognosen zu sehen.

Um die Karte zu ändern : klicken Sie auf den grünen Tasten mit einem schwarzen Kreuz Zum Vergrößern, auf den grünen Button mit einem Gedankenstrich zu verkleinern, oder auf die grünen Pfeile für benachbarte Karten.


METAR-TAF: